Time;durP1;ratioP1;P1;durP2;ratioP2;P2;SDS_P1;SDS_P2;PMS_P1;PMS_P2;Temp;Humidity;BMP_temperature;BMP_pressure;BME280_temperature;BME280_humidity;BME280_pressure;Samples;Min_cycle;Max_cycle;Signal;HPM_P1;HPM_P2
2023/05/17 00:00:08;;;;;;;4.20;3.07;;;;;;;7.29;100.00;97104.19;5069360;28;20221;-66
2023/05/17 00:02:36;;;;;;;3.10;2.57;;;;;;;7.03;100.00;97069.09;5069284;28;20289;-66
2023/05/17 00:05:05;;;;;;;2.93;2.70;;;;;;;7.15;100.00;97095.13;5068180;28;20283;-66
2023/05/17 00:07:33;;;;;;;3.03;2.83;;;;;;;7.10;100.00;97095.63;5028667;28;21608;-67
2023/05/17 00:10:01;;;;;;;3.30;2.30;;;;;;;7.09;100.00;97100.06;5068478;28;20293;-68
2023/05/17 00:12:29;;;;;;;2.50;2.30;;;;;;;7.01;100.00;97096.59;5067640;28;20202;-68
2023/05/17 00:14:57;;;;;;;3.20;2.70;;;;;;;7.02;100.00;97096.44;5055333;28;20237;-67
2023/05/17 00:17:24;;;;;;;7.50;2.80;;;;;;;6.98;100.00;97097.75;5064913;28;20309;-68
2023/05/17 00:19:52;;;;;;;3.10;2.50;;;;;;;6.88;100.00;97097.91;5072082;27;20212;-67
2023/05/17 00:22:20;;;;;;;3.60;2.70;;;;;;;6.86;100.00;97094.63;5071187;27;20282;-67
2023/05/17 00:24:47;;;;;;;4.37;2.40;;;;;;;6.81;100.00;97097.72;5023514;27;20404;-67
2023/05/17 00:27:16;;;;;;;2.90;2.67;;;;;;;6.76;100.00;97097.38;5070658;27;20409;-68
2023/05/17 00:29:44;;;;;;;5.23;3.20;;;;;;;6.64;100.00;97094.25;5054878;27;20209;-67
2023/05/17 00:32:11;;;;;;;3.17;2.67;;;;;;;6.70;100.00;97105.13;5062224;27;20277;-67
2023/05/17 00:34:39;;;;;;;4.63;2.20;;;;;;;6.62;100.00;97095.41;5068141;28;20312;-67
2023/05/17 00:37:07;;;;;;;5.83;2.60;;;;;;;6.64;100.00;97091.63;5070843;28;20660;-66
2023/05/17 00:39:34;;;;;;;2.73;2.53;;;;;;;6.63;100.00;97094.41;5026962;27;20210;-66
2023/05/17 00:42:02;;;;;;;3.73;3.43;;;;;;;6.64;100.00;97112.69;5071195;28;20234;-66
2023/05/17 00:44:31;;;;;;;2.83;2.63;;;;;;;6.40;100.00;97081.03;5053342;28;21754;-67
2023/05/17 00:46:59;;;;;;;5.23;3.17;;;;;;;6.55;100.00;97113.63;5077633;27;20212;-67
2023/05/17 00:49:27;;;;;;;3.10;2.80;;;;;;;6.53;100.00;97115.59;5070486;27;20240;-66
2023/05/17 00:51:55;;;;;;;2.43;2.23;;;;;;;6.47;100.00;97124.13;5080086;28;21265;-66
2023/05/17 00:54:22;;;;;;;8.13;2.77;;;;;;;6.44;100.00;97127.09;5025845;28;20224;-68
2023/05/17 00:56:50;;;;;;;2.70;2.40;;;;;;;6.42;100.00;97118.53;5076615;27;20364;-67
2023/05/17 00:59:18;;;;;;;2.80;2.57;;;;;;;6.41;100.00;97122.97;5049268;27;21046;-66
2023/05/17 01:01:47;;;;;;;2.63;2.37;;;;;;;6.42;100.00;97119.34;5073022;27;20244;-66
2023/05/17 01:04:15;;;;;;;8.57;2.83;;;;;;;6.42;100.00;97123.78;5074529;28;20913;-66
2023/05/17 01:06:42;;;;;;;2.53;2.27;;;;;;;6.39;100.00;97124.13;5076429;27;20246;-67
2023/05/17 01:09:10;;;;;;;3.03;2.80;;;;;;;6.37;100.00;97133.00;5068659;28;20205;-66
2023/05/17 01:11:42;;;;;;;3.40;3.10;;;;;;;6.37;100.00;97127.72;5033587;27;20398;-67
2023/05/17 01:14:21;;;;;;;2.77;2.57;;;;;;;6.35;100.00;97128.84;5071298;27;20207;-66
2023/05/17 01:16:56;;;;;;;3.43;2.63;;;;;;;6.23;100.00;97116.00;5049173;28;20201;-66
2023/05/17 01:19:40;;;;;;;5.97;2.57;;;;;;;6.33;100.00;97129.03;5071235;27;20193;-67
2023/05/17 01:22:15;;;;;;;4.37;2.33;;;;;;;6.31;100.00;97130.16;5073553;27;20390;-67
2023/05/17 01:24:51;;;;;;;3.37;2.47;;;;;;;6.37;100.00;97138.25;5068739;28;20228;-67
2023/05/17 01:27:20;;;;;;;3.50;2.07;;;;;;;6.38;100.00;97133.81;5031270;28;20213;-67
2023/05/17 01:29:49;;;;;;;2.60;2.40;;;;;;;6.37;100.00;97135.63;5074994;27;20224;-68
2023/05/17 01:32:17;;;;;;;7.37;2.60;;;;;;;6.33;100.00;97142.19;5051604;28;20198;-67
2023/05/17 01:34:45;;;;;;;2.90;2.67;;;;;;;6.29;100.00;97148.75;5071613;28;20970;-67
2023/05/17 01:37:13;;;;;;;3.93;2.60;;;;;;;6.33;100.00;97155.34;5071797;27;20285;-69
2023/05/17 01:39:41;;;;;;;3.50;2.33;;;;;;;6.33;100.00;97154.50;5067609;28;20333;-68
2023/05/17 01:42:14;;;;;;;2.40;2.30;;;;;;;6.28;100.00;97157.63;5028117;28;20344;-66
2023/05/17 01:44:49;;;;;;;3.40;1.83;;;;;;;6.22;100.00;97163.50;5064219;27;20844;-66
2023/05/17 01:47:21;;;;;;;3.23;1.80;;;;;;;6.25;100.00;97152.69;5052584;28;20208;-68
2023/05/17 01:49:53;;;;;;;1.90;1.80;;;;;;;6.21;100.00;97160.06;5063179;27;20202;-66
2023/05/17 01:52:25;;;;;;;5.13;2.40;;;;;;;6.19;100.00;97161.19;5072915;28;20314;-66
2023/05/17 01:54:56;;;;;;;3.17;2.20;;;;;;;6.16;100.00;97161.50;5069006;27;20230;-66
2023/05/17 01:57:28;;;;;;;1.83;1.60;;;;;;;6.13;100.00;97162.66;5033535;28;20225;-68
2023/05/17 02:00:00;;;;;;;3.07;2.70;;;;;;;6.10;100.00;97155.06;5065530;27;20888;-69
2023/05/17 02:02:27;;;;;;;2.53;2.30;;;;;;;6.15;100.00;97165.94;5049947;28;20753;-67
2023/05/17 02:04:55;;;;;;;1.90;1.80;;;;;;;6.13;100.00;97159.19;5061350;27;20217;-67
2023/05/17 02:07:22;;;;;;;2.33;2.07;;;;;;;6.08;100.00;97165.75;5070259;28;20216;-66
2023/05/17 02:09:50;;;;;;;2.77;1.80;;;;;;;6.12;100.00;97162.78;5060159;28;20746;-66
2023/05/17 02:12:18;;;;;;;3.10;1.77;;;;;;;6.07;100.00;97164.09;5070186;27;20308;-66
2023/05/17 02:14:46;;;;;;;3.83;2.37;;;;;;;6.06;100.00;97172.97;5027339;27;20206;-67
2023/05/17 02:17:15;;;;;;;2.13;1.73;;;;;;;6.00;100.00;97165.66;5058743;27;21118;-67
2023/05/17 02:19:43;;;;;;;2.40;2.20;;;;;;;6.01;100.00;97163.88;5052908;27;20212;-67
2023/05/17 02:22:10;;;;;;;2.13;2.03;;;;;;;6.00;100.00;97170.09;5073536;27;20220;-68
2023/05/17 02:24:38;;;;;;;5.67;1.97;;;;;;;5.94;100.00;97161.03;5066488;28;20961;-66
2023/05/17 02:27:05;;;;;;;2.37;2.20;;;;;;;5.95;100.00;97170.56;5069970;28;21102;-67
2023/05/17 02:29:34;;;;;;;3.23;2.40;;;;;;;5.90;100.00;97171.03;5028871;27;20215;-67
2023/05/17 02:32:02;;;;;;;4.10;2.10;;;;;;;5.86;100.00;97167.06;5074750;28;20221;-66
2023/05/17 02:34:31;;;;;;;2.97;1.70;;;;;;;5.80;100.00;97160.59;5035244;27;20873;-67
2023/05/17 02:36:59;;;;;;;3.03;2.23;;;;;;;5.80;100.00;97173.75;5067793;27;21027;-67
2023/05/17 02:39:26;;;;;;;3.43;1.77;;;;;;;5.78;100.00;97174.91;5066405;28;20867;-66
2023/05/17 02:41:54;;;;;;;1.80;1.70;;;;;;;5.77;100.00;97168.78;5069567;28;20274;-67
2023/05/17 02:44:21;;;;;;;3.73;2.00;;;;;;;5.76;100.00;97180.28;5031808;28;20247;-67
2023/05/17 02:46:49;;;;;;;3.20;1.93;;;;;;;5.69;100.00;97174.00;5068393;28;20629;-66
2023/05/17 02:49:16;;;;;;;1.87;1.77;;;;;;;5.72;100.00;97189.47;5060259;27;20210;-66
2023/05/17 02:51:45;;;;;;;5.57;2.13;;;;;;;5.66;100.00;97182.19;5052266;28;20331;-67
2023/05/17 02:54:13;;;;;;;4.17;2.03;;;;;;;5.67;100.00;97191.75;5070548;27;20288;-67
2023/05/17 02:56:41;;;;;;;2.70;2.13;;;;;;;5.67;100.00;97189.09;5069021;28;20896;-66
2023/05/17 02:59:08;;;;;;;4.20;2.43;;;;;;;5.67;100.00;97181.22;5032769;28;20209;-67
2023/05/17 03:01:36;;;;;;;3.37;1.80;;;;;;;5.65;100.00;97184.00;5071008;27;20328;-67
2023/05/17 03:04:03;;;;;;;1.93;1.83;;;;;;;5.54;100.00;97172.91;5054966;27;20481;-66
2023/05/17 03:06:33;;;;;;;4.03;2.20;;;;;;;5.43;100.00;97166.91;5053360;28;20236;-66
2023/05/17 03:09:02;;;;;;;2.73;2.30;;;;;;;5.60;100.00;97199.41;5066133;27;20194;-67
2023/05/17 03:11:30;;;;;;;1.83;1.73;;;;;;;5.55;100.00;97201.66;5069531;28;20228;-66
2023/05/17 03:13:58;;;;;;;1.70;1.60;;;;;;;5.56;100.00;97194.63;5043864;27;20206;-66
2023/05/17 03:16:25;;;;;;;2.00;1.70;;;;;;;5.54;100.00;97194.75;5029701;28;20918;-66
2023/05/17 03:18:53;;;;;;;2.00;1.80;;;;;;;5.48;100.00;97190.91;5071177;27;20751;-66
2023/05/17 03:21:21;;;;;;;4.60;1.90;;;;;;;5.50;100.00;97204.75;5027983;28;20253;-67
2023/05/17 03:23:48;;;;;;;6.33;2.40;;;;;;;5.47;100.00;97207.66;5066843;28;20271;-68
2023/05/17 03:26:18;;;;;;;4.23;1.93;;;;;;;5.43;100.00;97203.69;5067697;28;20225;-67
2023/05/17 03:28:46;;;;;;;2.00;1.90;;;;;;;5.42;100.00;97209.91;5064718;28;20743;-68
2023/05/17 03:31:13;;;;;;;2.70;1.93;;;;;;;5.42;100.00;97212.53;5031520;28;20233;-70
2023/05/17 03:33:41;;;;;;;4.73;2.30;;;;;;;5.45;100.00;97222.75;5074694;28;20339;-69
2023/05/17 03:36:09;;;;;;;4.97;2.40;;;;;;;5.42;100.00;97225.69;5039306;28;20211;-67
2023/05/17 03:38:36;;;;;;;1.80;1.70;;;;;;;5.42;100.00;97230.94;5069830;28;20316;-68
2023/05/17 03:41:04;;;;;;;1.93;1.80;;;;;;;5.38;100.00;97219.09;5073181;28;20247;-69
2023/05/17 03:43:33;;;;;;;1.93;1.73;;;;;;;5.35;100.00;97228.09;5067757;28;20395;-69
2023/05/17 03:46:01;;;;;;;3.03;1.97;;;;;;;5.33;100.00;97231.84;5029152;28;20285;-68
2023/05/17 03:48:29;;;;;;;5.20;2.60;;;;;;;5.35;100.00;97229.91;5071763;27;20421;-67
2023/05/17 03:50:56;;;;;;;5.37;2.30;;;;;;;5.36;100.00;97231.53;5061194;27;20891;-68
2023/05/17 03:53:24;;;;;;;4.43;2.67;;;;;;;5.32;100.00;97238.06;5055976;27;21166;-71
2023/05/17 03:55:51;;;;;;;2.30;2.07;;;;;;;5.32;100.00;97244.16;5075992;27;20742;-67
2023/05/17 03:58:19;;;;;;;4.27;2.07;;;;;;;5.31;100.00;97242.53;5078351;27;20212;-66
2023/05/17 04:00:48;;;;;;;3.93;2.40;;;;;;;5.32;100.00;97252.06;5028694;27;20231;-67
2023/05/17 04:03:17;;;;;;;3.77;2.17;;;;;;;5.22;100.00;97238.97;5074809;27;20228;-67
2023/05/17 04:05:46;;;;;;;2.67;2.47;;;;;;;5.26;100.00;97254.44;5078203;27;20221;-67
2023/05/17 04:08:14;;;;;;;4.17;2.67;;;;;;;5.34;100.00;97259.78;5037716;27;20816;-67
2023/05/17 04:10:42;;;;;;;4.30;2.23;;;;;;;5.29;100.00;97262.03;5070460;27;20218;-69
2023/05/17 04:13:09;;;;;;;2.30;2.10;;;;;;;5.33;100.00;97266.00;5074812;28;20289;-71
2023/05/17 04:15:37;;;;;;;2.33;2.13;;;;;;;5.33;100.00;97264.22;5074372;27;20190;-68
2023/05/17 04:18:06;;;;;;;2.93;2.40;;;;;;;5.34;100.00;97272.91;5008140;27;20270;-68
2023/05/17 04:20:34;;;;;;;2.13;2.00;;;;;;;5.31;100.00;97267.97;5080094;27;20221;-69
2023/05/17 04:23:02;;;;;;;4.87;2.70;;;;;;;5.31;100.00;97273.22;5045322;27;20208;-67
2023/05/17 04:25:29;;;;;;;3.43;2.43;;;;;;;5.31;100.00;97279.31;5072877;27;20227;-67
2023/05/17 04:27:57;;;;;;;4.90;2.53;;;;;;;5.33;100.00;97284.41;5076070;27;21111;-68
2023/05/17 04:30:25;;;;;;;2.50;2.30;;;;;;;5.33;100.00;97277.34;5078600;27;20214;-66
2023/05/17 04:32:52;;;;;;;3.40;2.30;;;;;;;5.33;100.00;97282.59;5030435;28;20216;-66
2023/05/17 04:35:22;;;;;;;2.50;2.30;;;;;;;5.33;100.00;97282.59;5075406;28;20205;-66
2023/05/17 04:37:49;;;;;;;2.53;2.33;;;;;;;5.31;100.00;97281.94;5062317;27;21188;-66
2023/05/17 04:40:17;;;;;;;7.07;3.03;;;;;;;5.33;100.00;97287.03;5054026;28;20785;-66
2023/05/17 04:42:44;;;;;;;1.97;1.97;;;;;;;5.13;100.00;97260.88;5070683;28;20274;-66
2023/05/17 04:45:12;;;;;;;3.23;2.07;;;;;;;5.35;100.00;97295.59;5075038;27;21114;-68
2023/05/17 04:47:42;;;;;;;5.70;3.03;;;;;;;5.36;100.00;97299.88;5063682;27;20755;-67
2023/05/17 04:50:10;;;;;;;2.40;2.30;;;;;;;5.43;100.00;97297.47;5027838;28;20226;-66
2023/05/17 04:52:39;;;;;;;5.80;2.57;;;;;;;5.42;100.00;97301.88;5074095;28;20271;-65
2023/05/17 04:55:07;;;;;;;3.93;2.50;;;;;;;5.51;100.00;97313.31;5050944;28;20312;-66
2023/05/17 04:57:35;;;;;;;2.60;2.20;;;;;;;5.55;100.00;97312.03;5077130;27;20190;-66
2023/05/17 05:00:05;;;;;;;4.07;2.57;;;;;;;5.46;100.00;97299.81;5072551;28;20213;-65
2023/05/17 05:02:33;;;;;;;3.37;2.23;;;;;;;5.60;100.00;97317.69;5074079;28;20259;-65
2023/05/17 05:05:01;;;;;;;4.90;2.53;;;;;;;5.69;100.00;97320.41;5034761;27;20206;-65
2023/05/17 05:07:28;;;;;;;4.20;2.70;;;;;;;5.74;100.00;97332.13;5075550;28;20287;-65
2023/05/17 05:09:57;;;;;;;4.70;2.47;;;;;;;5.82;100.00;97334.00;5048929;27;20291;-65
2023/05/17 05:12:25;;;;;;;5.37;2.77;;;;;;;5.88;100.00;97341.28;5076435;28;20285;-66
2023/05/17 05:14:53;;;;;;;7.87;2.57;;;;;;;5.91;100.00;97332.28;5077199;27;20203;-65
2023/05/17 05:17:21;;;;;;;3.10;2.80;;;;;;;6.12;100.00;97334.63;5069828;27;20275;-66
2023/05/17 05:19:49;;;;;;;6.13;2.43;;;;;;;6.22;100.00;97339.78;5035683;27;20209;-66
2023/05/17 05:22:16;;;;;;;3.97;3.00;;;;;;;6.39;100.00;97340.72;5074498;27;20198;-67
2023/05/17 05:24:44;;;;;;;5.57;3.00;;;;;;;6.43;100.00;97342.06;5061345;27;20206;-68
2023/05/17 05:27:13;;;;;;;5.47;3.03;;;;;;;6.43;100.00;97339.44;5074814;28;20209;-69
2023/05/17 05:29:41;;;;;;;4.90;2.80;;;;;;;6.43;100.00;97336.00;5075721;27;20320;-67
2023/05/17 05:32:09;;;;;;;4.23;3.23;;;;;;;6.61;100.00;97351.75;5073961;27;20354;-65
2023/05/17 05:34:38;;;;;;;4.63;3.13;;;;;;;6.65;100.00;97348.66;5036780;27;21051;-65
2023/05/17 05:37:06;;;;;;;3.23;2.80;;;;;;;6.61;100.00;97351.75;5075129;28;20196;-65
2023/05/17 05:39:33;;;;;;;6.37;3.17;;;;;;;6.62;100.00;97342.88;5073389;28;20202;-65
2023/05/17 05:42:03;;;;;;;4.00;3.50;;;;;;;6.77;100.00;97349.22;5052998;27;20311;-65
2023/05/17 05:44:32;;;;;;;3.10;2.80;;;;;;;6.83;100.00;97354.88;5075670;28;20267;-65
2023/05/17 05:47:00;;;;;;;3.40;2.80;;;;;;;6.81;100.00;97360.28;5075375;27;20347;-65
2023/05/17 05:49:28;;;;;;;3.70;2.97;;;;;;;6.92;100.00;97357.38;5031370;28;20886;-65
2023/05/17 05:51:56;;;;;;;4.70;2.90;;;;;;;7.15;100.00;97356.81;5076354;27;20270;-66
2023/05/17 05:54:23;;;;;;;3.83;3.17;;;;;;;7.44;100.00;97360.06;5071133;28;20316;-65
2023/05/17 05:56:51;;;;;;;4.37;3.90;;;;;;;7.46;100.00;97366.00;5058100;27;20204;-65
2023/05/17 05:59:18;;;;;;;7.47;3.13;;;;;;;7.72;100.00;97360.63;5070780;27;20304;-66
2023/05/17 06:01:47;;;;;;;6.90;3.00;;;;;;;8.11;100.00;97373.22;5073865;28;20217;-66
2023/05/17 06:04:15;;;;;;;5.37;3.50;;;;;;;8.02;100.00;97350.47;5072864;27;20199;-66
2023/05/17 06:06:43;;;;;;;5.27;2.87;;;;;;;8.25;100.00;97378.88;5035966;27;20309;-68
2023/05/17 06:09:11;;;;;;;3.07;2.83;;;;;;;8.44;100.00;97369.78;5073345;27;20194;-66
2023/05/17 06:11:38;;;;;;;4.40;3.27;;;;;;;8.64;100.00;97372.94;5054824;28;21091;-66
2023/05/17 06:14:07;;;;;;;4.00;3.23;;;;;;;8.70;100.00;97374.06;5071725;27;20193;-65
2023/05/17 06:16:34;;;;;;;7.17;3.87;;;;;;;8.56;100.00;97372.97;5075708;28;20211;-66
2023/05/17 06:19:03;;;;;;;4.73;3.00;;;;;;;8.77;100.00;97375.06;5070916;27;20204;-66
2023/05/17 06:21:31;;;;;;;5.00;3.70;;;;;;;8.78;100.00;97381.16;5037063;27;20286;-66
2023/05/17 06:23:59;;;;;;;5.37;3.80;;;;;;;8.79;100.00;97374.88;5070969;27;20231;-65
2023/05/17 06:26:30;;;;;;;4.90;3.87;;;;;;;8.77;100.00;97376.88;5074954;27;20221;-66
2023/05/17 06:28:58;;;;;;;5.30;3.90;;;;;;;8.54;100.00;97380.22;5055575;27;20225;-65
2023/05/17 06:31:25;;;;;;;7.07;3.60;;;;;;;8.71;100.00;97375.72;5073056;27;20224;-65
2023/05/17 06:33:53;;;;;;;5.27;3.87;;;;;;;8.62;100.00;97379.38;5071899;28;20814;-68
2023/05/17 06:36:22;;;;;;;6.70;3.93;;;;;;;8.76;100.00;97381.34;5033741;27;20895;-69
2023/05/17 06:38:51;;;;;;;5.57;4.07;;;;;;;8.87;100.00;97379.34;5072421;28;20201;-68
2023/05/17 06:41:19;;;;;;;6.00;4.40;;;;;;;8.69;100.00;97381.19;5073026;27;20214;-68
2023/05/17 06:43:47;;;;;;;6.03;4.30;;;;;;;8.71;100.00;97383.66;5052402;27;20217;-66
2023/05/17 06:46:14;;;;;;;4.77;4.00;;;;;;;8.72;100.00;97384.47;5070562;28;20199;-66
2023/05/17 06:48:42;;;;;;;4.30;3.90;;;;;;;8.70;100.00;97384.63;5069101;27;20301;-66
2023/05/17 06:51:11;;;;;;;4.43;3.93;;;;;;;8.85;100.00;97389.25;5031270;28;20996;-65
2023/05/17 06:53:40;;;;;;;5.33;4.60;;;;;;;9.02;100.00;97384.75;5073220;27;20208;-65
2023/05/17 06:56:08;;;;;;;7.70;4.37;;;;;;;9.29;100.00;97380.06;5070480;28;20198;-65
2023/05/17 06:58:35;;;;;;;9.47;4.30;;;;;;;9.29;100.00;97388.81;5056482;28;20205;-67
2023/05/17 07:01:03;;;;;;;8.07;4.50;;;;;;;9.29;100.00;97380.06;5069905;28;20328;-67
2023/05/17 07:03:31;;;;;;;6.73;4.63;;;;;;;9.12;100.00;97380.94;5073870;28;20202;-66
2023/05/17 07:05:59;;;;;;;4.37;3.87;;;;;;;9.07;100.00;97398.28;5055923;28;20206;-68
2023/05/17 07:08:27;;;;;;;8.33;4.13;;;;;;;9.29;100.00;97396.75;5055380;28;20217;-65
2023/05/17 07:10:56;;;;;;;4.33;3.90;;;;;;;9.14;100.00;97407.19;5075127;28;20859;-65
2023/05/17 07:13:23;;;;;;;7.47;4.93;;;;;;;9.21;100.00;97402.88;5071534;28;20281;-64
2023/05/17 07:15:51;;;;;;;4.97;4.40;;;;;;;9.18;100.00;97399.75;5052426;28;21202;-65
2023/05/17 07:18:19;;;;;;;9.00;4.20;;;;;;;9.11;100.00;97413.66;5063242;28;20933;-65
2023/05/17 07:20:47;;;;;;;5.93;3.87;;;;;;;9.20;100.00;97416.28;5074080;27;20237;-66
2023/05/17 07:23:14;;;;;;;7.30;4.50;;;;;;;9.45;100.00;97414.38;5029190;28;20519;-68
2023/05/17 07:25:42;;;;;;;6.43;4.33;;;;;;;9.56;100.00;97413.19;5078184;28;20395;-67
2023/05/17 07:28:11;;;;;;;6.07;4.40;;;;;;;9.58;100.00;97421.75;5070516;28;20214;-66
2023/05/17 07:30:39;;;;;;;5.57;4.43;;;;;;;9.59;100.00;97414.63;5052199;28;20232;-66
2023/05/17 07:33:06;;;;;;;5.40;4.57;;;;;;;9.58;100.00;97411.19;5069733;28;20593;-65
2023/05/17 07:35:34;;;;;;;5.10;4.43;;;;;;;9.68;100.00;97417.09;5077141;28;20202;-65
2023/05/17 07:38:02;;;;;;;7.37;5.53;;;;;;;9.29;100.00;97378.22;5031623;28;20233;-66
2023/05/17 07:40:30;;;;;;;4.53;4.10;;;;;;;9.54;100.00;97420.47;5072164;28;20934;-67
2023/05/17 07:42:58;;;;;;;6.30;4.47;;;;;;;9.71;100.00;97421.22;5076024;28;20322;-65
2023/05/17 07:45:28;;;;;;;4.80;4.30;;;;;;;9.85;100.00;97401.94;5060616;28;20998;-65
2023/05/17 07:47:56;;;;;;;8.60;4.47;;;;;;;10.16;100.00;97418.00;5070042;28;20220;-65
2023/05/17 07:50:24;;;;;;;5.53;4.30;;;;;;;9.96;100.00;97403.38;5068966;28;20887;-66
2023/05/17 07:52:52;;;;;;;6.70;4.50;;;;;;;10.14;100.00;97408.41;5031089;28;20205;-66
2023/05/17 07:55:20;;;;;;;4.50;3.60;;;;;;;9.84;100.00;97412.69;5072447;28;20255;-67
2023/05/17 07:57:48;;;;;;;6.67;4.60;;;;;;;9.65;100.00;97414.78;5075563;28;20189;-66
2023/05/17 08:00:18;;;;;;;5.43;4.93;;;;;;;9.69;100.00;97399.41;5052148;28;20972;-67
2023/05/17 08:02:47;;;;;;;7.30;4.30;;;;;;;9.64;100.00;97399.91;5072386;28;20205;-66
2023/05/17 08:05:15;;;;;;;5.53;4.23;;;;;;;9.94;100.00;97431.84;5069257;28;20207;-66
2023/05/17 08:07:43;;;;;;;6.73;4.30;;;;;;;10.22;100.00;97414.63;5037015;28;20217;-66
2023/05/17 08:10:11;;;;;;;8.03;4.67;;;;;;;10.16;100.00;97415.34;5069725;28;20313;-67
2023/05/17 08:12:38;;;;;;;4.80;4.40;;;;;;;10.08;100.00;97424.16;5075181;28;20295;-66
2023/05/17 08:15:07;;;;;;;4.67;4.20;;;;;;;10.23;100.00;97413.63;5056148;28;20198;-66
2023/05/17 08:17:34;;;;;;;5.43;4.37;;;;;;;10.28;100.00;97416.56;5072173;28;20204;-66
2023/05/17 08:20:04;;;;;;;5.90;4.17;;;;;;;10.40;100.00;97417.84;5073988;28;20254;-66
2023/05/17 08:22:32;;;;;;;4.93;4.03;;;;;;;10.66;100.00;97421.13;5034180;28;20341;-66
2023/05/17 08:25:00;;;;;;;4.90;3.77;;;;;;;10.71;98.86;97416.13;5073499;28;20608;-67
2023/05/17 08:27:29;;;;;;;5.13;4.73;;;;;;;10.60;100.00;97419.19;5074124;28;20198;-66
2023/05/17 08:29:58;;;;;;;4.43;4.03;;;;;;;10.88;100.00;97418.63;5074252;28;20281;-67
2023/05/17 08:32:26;;;;;;;4.50;3.80;;;;;;;11.04;100.00;97417.63;5054436;28;20193;-66
2023/05/17 08:34:54;;;;;;;7.13;5.17;;;;;;;11.09;100.00;97425.88;5074454;27;20204;-66
2023/05/17 08:37:23;;;;;;;4.40;4.10;;;;;;;11.21;100.00;97435.03;5074231;27;20194;-66
2023/05/17 08:39:51;;;;;;;6.47;5.80;;;;;;;11.34;100.00;97425.63;5038035;27;20213;-66
2023/05/17 08:42:23;;;;;;;4.93;4.53;;;;;;;11.21;97.07;97426.25;5079412;27;20351;-66
2023/05/17 08:44:51;;;;;;;5.23;4.73;;;;;;;11.16;93.12;97440.03;5077111;27;20220;-66
2023/05/17 08:47:28;;;;;;;6.03;4.17;;;;;;;11.02;95.76;97436.38;5054169;28;20849;-66
2023/05/17 08:49:59;;;;;;;8.47;5.10;;;;;;;10.99;95.45;97439.41;5074557;27;20204;-66
2023/05/17 08:52:31;;;;;;;8.03;4.83;;;;;;;10.79;95.13;97439.06;5074412;27;20288;-66
2023/05/17 08:54:59;;;;;;;7.53;6.27;;;;;;;10.86;97.31;97442.66;5034771;28;20213;-66
2023/05/17 08:57:29;;;;;;;9.93;7.30;;;;;;;10.47;99.04;97441.00;5079255;27;20229;-66
2023/05/17 08:59:58;;;;;;;6.70;6.00;;;;;;;10.47;98.86;97423.25;5074625;27;20255;-66
2023/05/17 09:02:26;;;;;;;10.80;7.17;;;;;;;10.94;95.82;97453.19;5061500;27;20991;-66
2023/05/17 09:04:55;;;;;;;7.80;5.37;;;;;;;11.18;94.01;97458.44;5078119;27;20190;-66
2023/05/17 09:07:23;;;;;;;5.30;4.73;;;;;;;11.04;92.43;97449.44;5074300;27;20201;-66
2023/05/17 09:09:53;;;;;;;6.53;5.10;;;;;;;11.10;92.74;97462.81;5074712;27;20725;-66
2023/05/17 09:12:21;;;;;;;6.33;4.53;;;;;;;10.95;91.66;97456.66;5047212;27;20217;-66
2023/05/17 09:14:52;;;;;;;7.10;4.23;;;;;;;10.96;94.75;97461.78;5081371;27;20240;-66
2023/05/17 09:17:20;;;;;;;5.00;4.50;;;;;;;11.10;95.14;97461.97;5059596;28;20206;-66
2023/05/17 09:19:49;;;;;;;5.33;4.10;;;;;;;11.05;91.77;97465.19;5058100;28;20285;-67
2023/05/17 09:22:18;;;;;;;4.63;4.23;;;;;;;10.95;89.33;97473.41;5071560;27;20203;-67
2023/05/17 09:24:46;;;;;;;6.30;5.10;;;;;;;10.98;91.49;97473.03;5074939;27;20267;-66
2023/05/17 09:27:17;;;;;;;6.33;5.00;;;;;;;11.05;88.38;97472.31;5035757;27;20218;-67
2023/05/17 09:29:46;;;;;;;4.73;4.20;;;;;;;11.19;87.49;97460.91;5079851;28;20253;-68
2023/05/17 09:32:14;;;;;;;6.40;4.03;;;;;;;11.43;87.40;97464.31;5053175;28;20377;-65
2023/05/17 09:34:42;;;;;;;5.87;4.30;;;;;;;11.79;87.80;97463.56;5060017;28;20671;-67
2023/05/17 09:37:14;;;;;;;5.80;4.50;;;;;;;12.10;87.28;97467.84;5071011;28;20671;-66
2023/05/17 09:39:43;;;;;;;5.30;4.80;;;;;;;12.05;79.35;97459.63;5076635;28;20241;-70
2023/05/17 09:42:11;;;;;;;4.50;4.10;;;;;;;12.11;82.25;97469.50;5036552;27;21044;-68
2023/05/17 09:44:51;;;;;;;5.70;3.83;;;;;;;12.28;81.12;97466.59;5077723;27;21056;-68
2023/05/17 09:47:23;;;;;;;6.30;4.20;;;;;;;12.22;82.23;97459.38;5059370;27;20250;-68
2023/05/17 09:49:51;;;;;;;8.40;4.20;;;;;;;12.30;83.38;97454.78;5076044;27;20317;-66
2023/05/17 09:52:20;;;;;;;4.83;4.40;;;;;;;12.78;79.92;97465.88;5059918;27;20328;-66
2023/05/17 09:54:55;;;;;;;7.60;4.60;;;;;;;12.81;74.48;97473.47;5074712;27;20304;-67
2023/05/17 09:57:23;;;;;;;5.40;3.90;;;;;;;12.81;78.10;97466.31;5038309;27;21087;-66
2023/05/17 09:59:55;;;;;;;5.43;4.30;;;;;;;12.97;72.04;97469.72;5079118;27;21021;-66
2023/05/17 10:02:27;;;;;;;4.13;3.73;;;;;;;12.64;71.76;97452.44;5054689;27;20437;-67
2023/05/17 10:04:56;;;;;;;4.30;3.90;;;;;;;12.67;73.02;97477.84;5069238;28;20213;-67
2023/05/17 10:07:26;;;;;;;5.17;3.97;;;;;;;12.76;75.05;97474.03;5055229;28;20241;-68
2023/05/17 10:09:55;;;;;;;6.63;3.63;;;;;;;12.63;74.37;97482.69;5076452;27;20221;-67
2023/05/17 10:12:23;;;;;;;7.07;4.10;;;;;;;12.62;73.50;97483.72;5035494;27;20340;-66
2023/05/17 10:14:55;;;;;;;7.83;4.47;;;;;;;12.93;74.87;97473.78;5079147;27;20198;-65
2023/05/17 10:17:24;;;;;;;4.63;4.23;;;;;;;12.96;73.11;97484.84;5065605;27;20224;-66
2023/05/17 10:19:52;;;;;;;5.27;4.77;;;;;;;13.14;70.15;97480.91;5077545;27;20201;-66
2023/05/17 10:22:21;;;;;;;5.27;4.17;;;;;;;13.08;70.35;97444.44;5056828;27;20197;-66
2023/05/17 10:24:51;;;;;;;5.03;4.13;;;;;;;12.69;69.06;97457.19;5076723;27;20206;-66
2023/05/17 10:27:18;;;;;;;6.07;4.73;;;;;;;12.98;70.49;97484.66;5031016;27;20333;-66
2023/05/17 10:29:46;;;;;;;5.03;4.40;;;;;;;13.04;71.23;97473.25;5078046;27;20274;-66
2023/05/17 10:32:21;;;;;;;5.87;4.70;;;;;;;13.11;67.53;97466.13;5070509;27;21197;-67
2023/05/17 10:34:51;;;;;;;4.23;3.80;;;;;;;12.89;67.44;97473.34;5056112;27;20263;-67
2023/05/17 10:37:37;;;;;;;5.90;3.90;;;;;;;13.03;72.08;97459.13;5060653;28;20211;-66
2023/05/17 10:40:11;;;;;;;4.63;4.23;;;;;;;13.62;67.89;97460.75;5071542;27;20288;-65
2023/05/17 10:42:41;;;;;;;4.10;3.80;;;;;;;13.67;68.83;97450.34;5036019;28;20208;-66
2023/05/17 10:45:09;;;;;;;4.07;3.67;;;;;;;13.39;66.53;97453.84;5073129;28;20333;-66
2023/05/17 10:47:40;;;;;;;7.80;4.20;;;;;;;13.17;69.88;97432.63;5077136;28;20335;-66
2023/05/17 10:50:11;;;;;;;4.97;3.97;;;;;;;12.98;69.86;97455.41;5054267;27;20228;-66
2023/05/17 10:52:46;;;;;;;5.77;4.20;;;;;;;12.83;68.56;97445.66;5076835;27;20213;-68
2023/05/17 10:55:13;;;;;;;6.10;4.07;;;;;;;12.86;72.90;97441.81;5051531;27;20254;-66
2023/05/17 10:57:41;;;;;;;8.83;4.97;;;;;;;13.08;69.98;97458.53;5077608;27;20193;-68
2023/05/17 11:00:19;;;;;;;6.00;4.20;;;;;;;13.41;69.09;97451.78;5037666;28;20406;-67
2023/05/17 11:02:49;;;;;;;7.70;4.30;;;;;;;13.55;66.40;97450.91;5075836;28;20206;-66
2023/05/17 11:05:24;;;;;;;4.70;4.27;;;;;;;13.76;64.26;97441.16;5050719;27;20610;-66
2023/05/17 11:07:52;;;;;;;6.47;4.50;;;;;;;13.42;62.39;97453.44;5076974;27;20258;-67
2023/05/17 11:10:19;;;;;;;4.83;4.27;;;;;;;13.35;66.63;97449.91;5053537;27;20217;-66
2023/05/17 11:12:52;;;;;;;6.47;4.00;;;;;;;13.56;65.24;97451.72;5075327;28;20263;-66
2023/05/17 11:15:23;;;;;;;4.70;4.30;;;;;;;13.70;67.08;97441.97;5029547;27;20947;-67
2023/05/17 11:17:53;;;;;;;4.53;4.17;;;;;;;14.41;64.47;97447.94;5078597;28;21280;-66
2023/05/17 11:20:32;;;;;;;6.73;4.10;;;;;;;14.66;62.62;97437.53;5072158;28;20977;-67
2023/05/17 11:23:01;;;;;;;5.43;4.50;;;;;;;14.18;61.47;97439.25;5069317;28;20687;-68
2023/05/17 11:25:31;;;;;;;4.23;3.60;;;;;;;14.15;59.83;97453.00;5057570;28;20240;-68
2023/05/17 11:27:59;;;;;;;5.73;3.97;;;;;;;14.27;64.18;97444.44;5074572;28;20769;-65
2023/05/17 11:30:29;;;;;;;5.53;3.97;;;;;;;14.56;61.79;97442.41;5030223;28;21891;-65
2023/05/17 11:33:00;;;;;;;4.43;4.00;;;;;;;14.62;60.89;97447.75;5073854;28;20201;-67
2023/05/17 11:35:30;;;;;;;4.00;3.60;;;;;;;14.28;63.53;97446.88;5057146;28;21614;-66
2023/05/17 11:38:14;;;;;;;4.80;3.70;;;;;;;13.72;64.68;97447.91;5071201;28;20202;-68
2023/05/17 11:40:42;;;;;;;6.10;4.00;;;;;;;13.56;66.40;97455.22;5062804;28;20993;-65